Time;durP1;ratioP1;P1;durP2;ratioP2;P2;SDS_P1;SDS_P2;PMS_P1;PMS_P2;Temp;Humidity;BMP_temperature;BMP_pressure;BME280_temperature;BME280_humidity;BME280_pressure;Samples;Min_cycle;Max_cycle;Signal;HPM_P1;HPM_P2
2022/12/14 00:01:24;;;;;;;3.42;3.25;;;-3.30;99.90;;;;;;4958119;28;20049;-78
2022/12/14 00:03:50;;;;;;;0.90;0.90;;;-3.30;99.90;;;;;;4947811;28;20049;-78
2022/12/14 00:06:18;;;;;;;0.90;0.90;;;-3.40;99.90;;;;;;4939075;28;20215;-78
2022/12/14 00:08:46;;;;;;;1.50;1.42;;;-3.40;99.90;;;;;;4942448;28;20899;-78
2022/12/14 00:11:15;;;;;;;0.90;0.90;;;-3.30;99.90;;;;;;4959718;28;20452;-78
2022/12/14 00:13:42;;;;;;;0.90;0.90;;;-3.40;99.90;;;;;;4935700;28;20049;-78
2022/12/14 00:16:11;;;;;;;0.90;0.90;;;-3.40;99.90;;;;;;4944705;28;20048;-78
2022/12/14 00:18:38;;;;;;;0.90;0.90;;;-3.40;99.90;;;;;;4942737;28;20053;-78
2022/12/14 00:21:12;;;;;;;0.90;0.90;;;-3.50;99.90;;;;;;4942846;28;20053;-77
2022/12/14 00:23:42;;;;;;;0.90;0.90;;;-3.50;99.90;;;;;;4951821;28;20060;-78
2022/12/14 00:26:12;;;;;;;0.80;0.80;;;-3.50;99.90;;;;;;4942967;28;20083;-77
2022/12/14 00:28:38;;;;;;;0.90;0.90;;;-3.60;99.90;;;;;;4954593;28;20436;-78
2022/12/14 00:31:05;;;;;;;0.90;0.90;;;-3.60;99.90;;;;;;4954148;28;20045;-78
2022/12/14 00:33:41;;;;;;;0.90;0.90;;;-3.60;99.90;;;;;;4955970;28;20052;-77
2022/12/14 00:36:09;;;;;;;0.90;0.90;;;-3.70;99.90;;;;;;4924889;28;20110;-78
2022/12/14 00:38:36;;;;;;;0.90;0.90;;;-3.60;99.90;;;;;;4947363;28;20132;-78
2022/12/14 00:41:02;;;;;;;0.90;0.90;;;-3.60;99.90;;;;;;4931558;28;20491;-78
2022/12/14 00:43:28;;;;;;;0.90;0.90;;;-3.60;99.90;;;;;;4958712;28;20958;-78
2022/12/14 00:45:54;;;;;;;0.90;0.90;;;-3.60;99.90;;;;;;4948010;28;20423;-77
2022/12/14 00:48:22;;;;;;;0.90;0.90;;;-3.50;99.90;;;;;;4952825;28;20053;-78
2022/12/14 00:50:49;;;;;;;0.90;0.90;;;-3.60;99.90;;;;;;4948221;28;20045;-77
2022/12/14 00:53:16;;;;;;;0.90;0.90;;;-3.60;99.90;;;;;;4962276;28;20098;-77
2022/12/14 00:55:45;;;;;;;0.90;0.90;;;-3.60;99.90;;;;;;4955148;28;20042;-78
2022/12/14 00:58:12;;;;;;;0.90;0.90;;;-3.70;99.90;;;;;;4959086;28;20072;-78
2022/12/14 01:00:47;;;;;;;0.90;0.90;;;-3.70;99.90;;;;;;4946240;28;20057;-78
2022/12/14 01:03:13;;;;;;;0.90;0.90;;;-3.80;99.90;;;;;;4967759;28;20049;-77
2022/12/14 01:05:39;;;;;;;0.90;0.90;;;-3.80;99.90;;;;;;4954906;28;20576;-77
2022/12/14 01:08:06;;;;;;;0.93;0.93;;;-3.90;99.90;;;;;;4946590;28;20372;-77
2022/12/14 01:10:32;;;;;;;0.90;0.90;;;-3.90;99.90;;;;;;4946565;28;20103;-78
2022/12/14 01:12:57;;;;;;;0.90;0.90;;;-3.90;99.90;;;;;;4929724;28;20064;-78
2022/12/14 01:15:24;;;;;;;0.90;0.90;;;-3.90;99.90;;;;;;4949690;28;20611;-77
2022/12/14 01:17:51;;;;;;;0.90;0.90;;;-3.90;99.90;;;;;;4943912;28;20048;-78
2022/12/14 01:20:17;;;;;;;0.90;0.90;;;-3.90;99.90;;;;;;4951108;28;20064;-77
2022/12/14 01:22:43;;;;;;;0.90;0.90;;;-3.90;99.90;;;;;;4950945;28;20069;-77
2022/12/14 01:25:09;;;;;;;0.90;0.90;;;-3.90;99.90;;;;;;4946106;28;20057;-77
2022/12/14 01:27:35;;;;;;;0.80;0.80;;;-3.90;99.90;;;;;;4946753;28;20059;-77
2022/12/14 01:30:01;;;;;;;0.80;0.80;;;-4.00;99.90;;;;;;4926858;28;20380;-77
2022/12/14 01:32:27;;;;;;;0.80;0.80;;;-4.00;99.90;;;;;;4945647;28;21028;-77
2022/12/14 01:34:53;;;;;;;1.33;1.33;;;-4.00;99.90;;;;;;4944403;28;20045;-77
2022/12/14 01:37:19;;;;;;;0.80;0.80;;;-3.90;99.90;;;;;;4934091;28;20955;-77
2022/12/14 01:39:45;;;;;;;0.90;0.90;;;-3.90;99.90;;;;;;4949440;28;20095;-77
2022/12/14 01:42:13;;;;;;;0.90;0.90;;;-3.90;99.90;;;;;;4955699;28;20092;-77
2022/12/14 01:44:39;;;;;;;0.90;0.90;;;-4.00;99.90;;;;;;4940515;28;20041;-77
2022/12/14 01:47:29;;;;;;;0.80;0.80;;;-3.90;99.90;;;;;;4944263;28;20408;-77
2022/12/14 01:50:10;;;;;;;0.90;0.90;;;-3.90;99.90;;;;;;4948040;28;20080;-77
2022/12/14 01:52:48;;;;;;;0.90;0.90;;;-4.00;99.90;;;;;;4949438;28;20056;-77
2022/12/14 01:55:28;;;;;;;0.90;0.90;;;-3.90;99.90;;;;;;4938988;28;20407;-77
2022/12/14 01:58:14;;;;;;;0.80;0.80;;;-3.90;99.90;;;;;;4945216;28;20411;-77
2022/12/14 02:00:41;;;;;;;0.90;0.90;;;-4.00;99.90;;;;;;4937613;28;20041;-77
2022/12/14 02:03:09;;;;;;;0.90;0.90;;;-4.00;99.90;;;;;;4945531;28;20045;-77
2022/12/14 02:05:39;;;;;;;0.90;0.90;;;-4.00;99.90;;;;;;4943008;28;20204;-77
2022/12/14 02:08:07;;;;;;;0.90;0.90;;;-4.10;99.90;;;;;;4949302;28;20925;-77
2022/12/14 02:10:33;;;;;;;0.90;0.90;;;-4.10;99.90;;;;;;4949490;28;20045;-77
2022/12/14 02:13:37;;;;;;;0.90;0.90;;;-4.20;99.90;;;;;;4944787;28;20060;-77
2022/12/14 02:16:04;;;;;;;0.90;0.90;;;-4.20;99.90;;;;;;4937716;28;20041;-77
2022/12/14 02:18:31;;;;;;;1.00;1.00;;;-4.30;99.90;;;;;;4944311;28;20053;-77
2022/12/14 02:21:16;;;;;;;0.80;0.80;;;-4.20;99.90;;;;;;4945241;28;20529;-77
2022/12/14 02:24:00;;;;;;;0.90;0.90;;;-4.30;99.90;;;;;;4921918;28;20073;-77
2022/12/14 02:26:37;;;;;;;0.90;0.90;;;-4.30;99.90;;;;;;4948654;28;20107;-77
2022/12/14 02:29:32;;;;;;;0.90;0.90;;;-4.30;99.90;;;;;;4944988;28;20507;-77
2022/12/14 02:32:13;;;;;;;0.85;0.85;;;-4.30;99.90;;;;;;4944872;28;20056;-77
2022/12/14 02:35:00;;;;;;;0.85;0.85;;;-4.30;99.90;;;;;;4947080;28;20302;-77
2022/12/14 02:37:48;;;;;;;0.90;0.90;;;-4.30;99.90;;;;;;4943009;28;20493;-77
2022/12/14 02:40:51;;;;;;;1.25;1.25;;;-4.50;99.90;;;;;;4949097;28;20580;-77
2022/12/14 02:43:48;;;;;;;0.90;0.90;;;-4.50;99.90;;;;;;4942762;28;20046;-77
2022/12/14 02:46:14;;;;;;;0.90;0.90;;;-4.60;99.90;;;;;;4944781;28;20487;-77
2022/12/14 02:48:49;;;;;;;0.90;0.90;;;-4.60;99.90;;;;;;4945688;28;20517;-77
2022/12/14 02:51:37;;;;;;;0.90;0.90;;;-4.50;99.90;;;;;;4937021;28;20076;-78
2022/12/14 02:54:13;;;;;;;0.90;0.90;;;-4.60;99.90;;;;;;4945199;28;20926;-77
2022/12/14 02:56:46;;;;;;;0.90;0.90;;;-4.50;99.90;;;;;;4937255;28;20053;-77
2022/12/14 02:59:13;;;;;;;;;;;-4.50;99.90;;;;;;4942633;28;20795;-77
2022/12/14 03:01:40;;;;;;;0.90;0.90;;;-4.50;99.90;;;;;;4939359;28;19932;-77
2022/12/14 03:04:06;;;;;;;0.90;0.90;;;-4.50;99.90;;;;;;4939015;28;20057;-77
2022/12/14 03:06:32;;;;;;;0.90;0.90;;;-4.60;99.90;;;;;;4947256;28;20506;-77
2022/12/14 03:09:03;;;;;;;0.90;0.90;;;-4.60;99.90;;;;;;4935991;28;20099;-77
2022/12/14 03:11:39;;;;;;;0.90;0.90;;;-4.90;99.90;;;;;;4944027;28;20057;-77
2022/12/14 03:14:33;;;;;;;3.97;3.08;;;-4.90;99.90;;;;;;4937592;28;20836;-77
2022/12/14 03:17:28;;;;;;;1.15;1.15;;;-4.90;99.90;;;;;;4945425;28;20049;-77
2022/12/14 03:20:11;;;;;;;0.85;0.85;;;-4.90;99.90;;;;;;4936374;28;20571;-77
2022/12/14 03:22:53;;;;;;;0.90;0.90;;;-5.00;99.90;;;;;;4944144;28;20060;-77
2022/12/14 03:25:33;;;;;;;0.90;0.90;;;-5.10;99.90;;;;;;4950421;28;20832;-77
2022/12/14 03:28:29;;;;;;;0.90;0.90;;;-5.20;99.90;;;;;;4952093;28;20140;-76
2022/12/14 03:31:10;;;;;;;0.90;0.90;;;-5.20;99.90;;;;;;4947983;28;20049;-77
2022/12/14 03:33:38;;;;;;;0.90;0.90;;;-5.40;99.90;;;;;;4947159;28;20449;-76
2022/12/14 03:36:23;;;;;;;0.90;0.90;;;-5.50;99.90;;;;;;4948331;28;20490;-76
2022/12/14 03:38:54;;;;;;;0.90;0.90;;;-5.50;99.90;;;;;;4958110;28;20840;-76
2022/12/14 03:41:27;;;;;;;0.90;0.90;;;-5.40;99.90;;;;;;4944919;28;20084;-77
2022/12/14 03:44:26;;;;;;;0.90;0.90;;;-5.40;99.90;;;;;;4935734;28;20633;-77
2022/12/14 03:46:52;;;;;;;0.90;0.90;;;-5.50;99.90;;;;;;4949851;28;20040;-77
2022/12/14 03:49:43;;;;;;;1.00;1.00;;;-5.60;99.90;;;;;;4957331;28;20136;-77
2022/12/14 03:52:23;;;;;;;0.90;0.90;;;-5.60;99.90;;;;;;4943615;28;20045;-77
2022/12/14 03:55:11;;;;;;;0.90;0.90;;;-5.50;99.90;;;;;;4951381;28;20152;-76
2022/12/14 03:58:01;;;;;;;0.88;0.88;;;-5.40;99.90;;;;;;4948765;28;20045;-77
2022/12/14 04:00:32;;;;;;;0.90;0.90;;;-5.60;99.90;;;;;;4945131;28;20053;-77
2022/12/14 04:03:08;;;;;;;0.90;0.90;;;-5.60;99.90;;;;;;4947050;28;20059;-77
2022/12/14 04:05:45;;;;;;;0.90;0.90;;;-5.60;99.90;;;;;;4950976;28;20045;-76
2022/12/14 04:08:26;;;;;;;0.90;0.90;;;-5.60;99.90;;;;;;4951635;28;21647;-77
2022/12/14 04:19:29;;;;;;;0.93;0.93;;;-5.60;99.90;;;;;;4942920;28;20763;-77
2022/12/14 04:22:01;;;;;;;0.90;0.90;;;-5.60;99.90;;;;;;4944515;28;20493;-77
2022/12/14 04:27:20;;;;;;;0.90;0.90;;;-5.70;99.90;;;;;;4954183;28;20053;-77
2022/12/14 04:29:55;;;;;;;0.90;0.90;;;-5.60;99.90;;;;;;4949465;28;20093;-77
2022/12/14 04:32:30;;;;;;;0.90;0.90;;;-5.60;99.90;;;;;;4944456;28;20049;-77
2022/12/14 04:35:10;;;;;;;0.90;0.90;;;-5.60;99.90;;;;;;4947190;28;20141;-77
2022/12/14 04:37:38;;;;;;;0.90;0.90;;;-5.50;99.90;;;;;;4934682;28;20049;-77
2022/12/14 04:40:12;;;;;;;0.90;0.90;;;-5.50;99.90;;;;;;4920593;28;20050;-77
2022/12/14 04:42:49;;;;;;;0.90;0.90;;;-5.60;99.90;;;;;;4947129;28;20794;-77
2022/12/14 04:45:25;;;;;;;0.90;0.90;;;-5.60;99.90;;;;;;4946057;28;20135;-76
2022/12/14 04:47:58;;;;;;;0.90;0.90;;;-5.60;99.90;;;;;;4947889;28;20445;-76
2022/12/14 04:50:35;;;;;;;0.90;0.90;;;-5.70;99.90;;;;;;4941480;28;20108;-76
2022/12/14 04:53:20;;;;;;;1.00;1.00;;;-5.70;99.90;;;;;;4945598;28;20580;-77
2022/12/14 04:55:56;;;;;;;0.90;0.90;;;-5.70;99.90;;;;;;4940031;28;20049;-77
2022/12/14 04:58:26;;;;;;;0.95;0.95;;;-5.80;99.90;;;;;;4941993;28;21198;-76
2022/12/14 05:01:10;;;;;;;0.90;0.90;;;-5.80;99.90;;;;;;4944317;28;20084;-76
2022/12/14 05:04:02;;;;;;;0.90;0.90;;;-5.80;99.90;;;;;;4955038;28;20079;-77
2022/12/14 05:06:43;;;;;;;0.90;0.90;;;-5.90;99.90;;;;;;4942714;28;20499;-77
2022/12/14 05:09:50;;;;;;;0.90;0.90;;;-5.90;99.90;;;;;;4949242;28;20080;-77
2022/12/14 05:12:42;;;;;;;1.00;1.00;;;-5.90;99.90;;;;;;4927822;28;20056;-77
2022/12/14 05:15:14;;;;;;;0.90;0.90;;;-6.00;99.90;;;;;;4939270;28;20842;-76
2022/12/14 05:17:41;;;;;;;0.90;0.90;;;-6.00;99.90;;;;;;4945467;28;20054;-77
2022/12/14 05:20:28;;;;;;;1.00;1.00;;;-6.00;99.90;;;;;;4944423;28;20061;-76
2022/12/14 05:22:55;;;;;;;0.90;0.90;;;-6.00;99.90;;;;;;4947140;28;20440;-77
2022/12/14 05:25:20;;;;;;;0.90;0.90;;;-6.00;99.90;;;;;;4944346;28;20937;-77
2022/12/14 05:27:46;;;;;;;0.90;0.90;;;-5.90;99.90;;;;;;4939893;28;20045;-77
2022/12/14 05:30:12;;;;;;;0.95;0.95;;;-6.00;99.90;;;;;;4943283;28;20480;-76
2022/12/14 05:32:38;;;;;;;1.00;1.00;;;-6.10;99.90;;;;;;4948140;28;20041;-77
2022/12/14 05:35:08;;;;;;;0.90;0.90;;;-6.00;99.90;;;;;;4926017;28;20068;-76
2022/12/14 05:37:37;;;;;;;0.90;0.90;;;-6.10;99.90;;;;;;4963056;28;20541;-76
2022/12/14 05:40:03;;;;;;;0.90;0.90;;;-6.10;99.90;;;;;;4961348;28;20944;-77
2022/12/14 05:42:30;;;;;;;0.90;0.90;;;-6.00;99.90;;;;;;4933141;28;20416;-76
2022/12/14 05:44:56;;;;;;;0.90;0.90;;;-6.00;99.90;;;;;;4939652;28;20539;-76
2022/12/14 05:47:22;;;;;;;0.90;0.90;;;-6.10;99.90;;;;;;4938438;28;20553;-76
2022/12/14 05:49:48;;;;;;;0.90;0.90;;;-6.00;99.90;;;;;;4941198;28;20534;-76
2022/12/14 05:52:14;;;;;;;0.90;0.90;;;-6.10;99.90;;;;;;4944265;28;20045;-76
2022/12/14 05:54:40;;;;;;;0.90;0.90;;;-6.10;99.90;;;;;;4941558;28;20107;-76
2022/12/14 05:57:06;;;;;;;0.90;0.90;;;-6.10;99.90;;;;;;4937986;28;20057;-76
2022/12/14 05:59:32;;;;;;;0.90;0.90;;;-6.10;99.90;;;;;;4938564;28;20988;-76
2022/12/14 06:01:58;;;;;;;0.90;0.90;;;-6.10;99.90;;;;;;4941707;28;20037;-76
2022/12/14 06:04:24;;;;;;;0.90;0.90;;;-6.10;99.90;;;;;;4951900;28;20057;-76
2022/12/14 06:06:50;;;;;;;0.90;0.90;;;-6.10;99.90;;;;;;4945552;28;20665;-77
2022/12/14 06:09:17;;;;;;;0.90;0.90;;;-6.20;99.90;;;;;;4945311;28;20053;-76
2022/12/14 06:11:45;;;;;;;1.00;1.00;;;-6.10;99.90;;;;;;4947988;28;20951;-76
2022/12/14 06:14:12;;;;;;;1.00;1.00;;;-6.20;99.90;;;;;;4957688;28;20576;-76
2022/12/14 06:16:43;;;;;;;0.90;0.90;;;-6.00;99.90;;;;;;4950350;28;20053;-76
2022/12/14 06:19:10;;;;;;;1.00;1.00;;;-6.20;99.90;;;;;;4946157;28;20049;-76
2022/12/14 06:21:37;;;;;;;0.90;0.90;;;-6.30;99.90;;;;;;4949077;28;20056;-76
2022/12/14 06:24:04;;;;;;;1.00;1.00;;;-6.20;99.90;;;;;;4941163;28;21080;-76
2022/12/14 06:26:32;;;;;;;1.00;1.00;;;-6.20;99.90;;;;;;4948209;28;20071;-76
2022/12/14 06:28:58;;;;;;;0.90;0.90;;;-6.20;99.90;;;;;;4956631;28;20504;-76
2022/12/14 06:31:30;;;;;;;0.90;0.90;;;-6.20;99.90;;;;;;4947736;28;20089;-76
2022/12/14 06:33:58;;;;;;;0.90;0.90;;;-6.40;99.90;;;;;;4940230;28;20071;-76
2022/12/14 06:36:27;;;;;;;1.00;1.00;;;-6.30;99.90;;;;;;4944103;28;20041;-76
2022/12/14 06:38:54;;;;;;;1.00;1.00;;;-6.40;99.90;;;;;;4948648;28;20052;-76
2022/12/14 06:41:21;;;;;;;1.00;1.00;;;-6.40;99.90;;;;;;4950865;28;20044;-76
2022/12/14 06:43:47;;;;;;;1.00;1.00;;;-6.40;99.90;;;;;;4945010;28;20049;-76
2022/12/14 06:46:15;;;;;;;1.00;1.00;;;-6.40;99.90;;;;;;4952997;28;20045;-76
2022/12/14 06:48:42;;;;;;;1.00;1.00;;;-6.40;99.90;;;;;;4944533;28;20053;-76
2022/12/14 06:51:08;;;;;;;1.00;1.00;;;-6.30;99.90;;;;;;4949699;28;20266;-76
2022/12/14 06:53:34;;;;;;;0.90;0.90;;;-6.30;99.90;;;;;;4942522;28;20052;-76
2022/12/14 06:56:07;;;;;;;0.90;0.90;;;-6.30;99.90;;;;;;4939590;28;20052;-76
2022/12/14 06:58:35;;;;;;;0.90;0.90;;;-6.40;99.90;;;;;;4940484;28;20053;-76
2022/12/14 07:01:02;;;;;;;0.98;0.98;;;-6.40;99.90;;;;;;4943780;28;20424;-76
2022/12/14 07:03:28;;;;;;;1.00;1.00;;;-6.50;99.90;;;;;;4941309;28;20037;-76
2022/12/14 07:05:58;;;;;;;0.90;0.90;;;-6.40;99.90;;;;;;4951929;28;20164;-76
2022/12/14 07:08:25;;;;;;;0.90;0.90;;;-6.40;99.90;;;;;;4942807;28;20476;-76
2022/12/14 07:10:51;;;;;;;0.90;0.90;;;-6.40;99.90;;;;;;4936698;28;20593;-77
2022/12/14 07:13:18;;;;;;;0.98;0.98;;;-6.40;99.90;;;;;;4934165;28;20048;-76
2022/12/14 07:15:50;;;;;;;0.90;0.90;;;-6.40;99.90;;;;;;4943746;28;20052;-76
2022/12/14 07:18:16;;;;;;;1.00;1.00;;;-6.30;99.90;;;;;;4937927;28;21016;-76
2022/12/14 07:20:43;;;;;;;1.00;1.00;;;-6.20;99.90;;;;;;4944941;28;20142;-75
2022/12/14 07:23:09;;;;;;;0.93;0.93;;;-6.20;99.90;;;;;;4948660;28;20088;-75
2022/12/14 07:25:35;;;;;;;0.90;0.90;;;-6.20;99.90;;;;;;4949304;28;20041;-76
2022/12/14 07:28:01;;;;;;;1.00;1.00;;;-6.20;99.90;;;;;;4944746;28;20115;-75
2022/12/14 07:30:27;;;;;;;1.00;1.00;;;-6.20;99.90;;;;;;4946386;28;20049;-75
2022/12/14 07:32:53;;;;;;;1.00;1.00;;;-6.20;99.90;;;;;;4945102;28;20689;-77
2022/12/14 07:35:19;;;;;;;1.00;1.00;;;-6.10;99.90;;;;;;4948038;28;21216;-76
2022/12/14 07:37:48;;;;;;;1.00;1.00;;;-6.10;99.90;;;;;;4943048;28;20197;-78
2022/12/14 07:40:14;;;;;;;1.00;1.00;;;-6.10;99.90;;;;;;4937777;28;20568;-74
2022/12/14 07:42:40;;;;;;;1.05;1.05;;;-6.20;99.90;;;;;;4950075;28;20094;-76
2022/12/14 07:45:06;;;;;;;1.00;1.00;;;-6.10;99.90;;;;;;4942422;28;20041;-75
2022/12/14 07:47:32;;;;;;;1.00;1.00;;;-6.20;99.90;;;;;;4941879;28;20181;-75
2022/12/14 07:49:57;;;;;;;1.00;1.00;;;-6.10;99.90;;;;;;4942847;28;20052;-74
2022/12/14 07:52:42;;;;;;;1.00;1.00;;;-6.10;99.90;;;;;;4942926;28;20068;-74
2022/12/14 07:55:08;;;;;;;1.00;1.00;;;-6.10;99.90;;;;;;4931740;28;21251;-75
2022/12/14 07:57:34;;;;;;;0.90;0.90;;;-6.10;99.90;;;;;;4946693;28;20055;-76
2022/12/14 08:00:00;;;;;;;1.00;1.00;;;-6.10;99.90;;;;;;4950271;28;20052;-78
2022/12/14 08:02:26;;;;;;;1.00;1.00;;;-6.10;99.90;;;;;;4942292;28;20053;-76
2022/12/14 08:04:52;;;;;;;0.90;0.90;;;-6.20;99.90;;;;;;4938451;28;20498;-77
2022/12/14 08:07:18;;;;;;;0.90;0.90;;;-6.00;99.90;;;;;;4947053;28;20944;-76
2022/12/14 08:09:44;;;;;;;0.90;0.90;;;-6.00;99.90;;;;;;4940640;28;20487;-77
2022/12/14 08:12:10;;;;;;;1.00;1.00;;;-6.10;99.90;;;;;;4943240;28;20037;-77
2022/12/14 08:14:36;;;;;;;1.00;1.00;;;-6.10;99.90;;;;;;4943379;28;20092;-76
2022/12/14 08:17:01;;;;;;;1.75;1.65;;;-6.10;99.90;;;;;;4943309;28;20102;-76
2022/12/14 08:19:27;;;;;;;1.00;1.00;;;-6.10;99.90;;;;;;4945928;28;21010;-76
2022/12/14 08:21:53;;;;;;;1.00;1.00;;;-6.10;99.90;;;;;;4945277;28;20095;-77
2022/12/14 08:24:19;;;;;;;1.00;1.00;;;-6.10;99.90;;;;;;4940706;28;20045;-76
2022/12/14 08:26:45;;;;;;;1.00;1.00;;;-6.20;99.90;;;;;;4948321;28;20091;-76
2022/12/14 08:29:13;;;;;;;0.90;0.90;;;-6.10;99.90;;;;;;4946454;28;20041;-75
2022/12/14 08:31:40;;;;;;;1.00;1.00;;;-6.00;99.90;;;;;;4944573;28;20078;-73
2022/12/14 08:34:06;;;;;;;0.90;0.90;;;-6.00;99.90;;;;;;4949441;28;20148;-73
2022/12/14 08:36:33;;;;;;;1.00;1.00;;;-5.80;99.90;;;;;;4949344;28;20053;-72
2022/12/14 08:39:02;;;;;;;0.90;0.90;;;-5.70;99.90;;;;;;4946155;28;20120;-73
2022/12/14 08:41:28;;;;;;;0.90;0.90;;;-5.60;99.90;;;;;;4947903;28;20044;-72
2022/12/14 08:43:56;;;;;;;1.00;1.00;;;-5.50;99.90;;;;;;4952384;28;20480;-76
2022/12/14 08:46:23;;;;;;;1.00;1.00;;;-5.30;99.90;;;;;;4952551;28;20045;-75
2022/12/14 08:48:51;;;;;;;0.90;0.90;;;-5.20;99.90;;;;;;4956594;28;20442;-74
2022/12/14 08:51:17;;;;;;;0.90;0.90;;;-5.00;99.90;;;;;;4950942;28;20686;-76
2022/12/14 08:53:46;;;;;;;0.98;0.98;;;-4.90;99.90;;;;;;4953595;28;20135;-78
2022/12/14 08:56:14;;;;;;;1.00;1.00;;;-4.90;99.90;;;;;;4955280;28;20584;-76
2022/12/14 08:58:41;;;;;;;0.90;0.90;;;-4.70;99.90;;;;;;4956252;28;20103;-77
2022/12/14 09:01:14;;;;;;;0.90;0.90;;;-4.40;99.90;;;;;;4952936;28;21000;-75
2022/12/14 09:03:47;;;;;;;0.90;0.90;;;-4.30;99.90;;;;;;4952164;28;20041;-75
2022/12/14 09:06:22;;;;;;;0.90;0.90;;;-4.20;99.90;;;;;;4959078;28;20045;-75
2022/12/14 09:08:48;;;;;;;0.90;0.90;;;-4.10;99.90;;;;;;4949407;28;20242;-76
2022/12/14 09:11:15;;;;;;;0.90;0.90;;;-4.10;99.90;;;;;;4938912;28;20056;-75
2022/12/14 09:13:42;;;;;;;0.90;0.90;;;-3.90;99.90;;;;;;4954435;28;20617;-73
2022/12/14 09:16:16;;;;;;;0.90;0.90;;;-4.00;99.90;;;;;;4952550;28;20924;-76
2022/12/14 09:18:45;;;;;;;0.90;0.90;;;-4.00;99.90;;;;;;4962865;28;20172;-76
2022/12/14 09:21:11;;;;;;;0.90;0.90;;;-4.10;99.90;;;;;;4949110;28;21018;-76
2022/12/14 09:23:38;;;;;;;0.90;0.90;;;-3.90;99.90;;;;;;4952203;28;20662;-75
2022/12/14 09:26:14;;;;;;;0.90;0.90;;;-3.80;99.90;;;;;;4945304;28;20410;-76
2022/12/14 09:28:43;;;;;;;0.90;0.90;;;-3.80;99.90;;;;;;4958106;28;20633;-76
2022/12/14 09:31:11;;;;;;;0.90;0.90;;;-3.70;99.90;;;;;;4948974;28;20037;-77
2022/12/14 09:33:38;;;;;;;0.80;0.80;;;-3.60;99.90;;;;;;4948667;28;20574;-76
2022/12/14 09:36:06;;;;;;;0.90;0.90;;;-3.70;99.90;;;;;;4949382;28;20039;-76
2022/12/14 09:38:34;;;;;;;0.90;0.90;;;-3.40;99.90;;;;;;4947778;28;20041;-76
2022/12/14 09:41:04;;;;;;;0.85;0.85;;;-3.20;99.90;;;;;;4953980;28;20052;-75
2022/12/14 09:43:41;;;;;;;0.90;0.90;;;-3.10;99.90;;;;;;4949898;28;20522;-76
2022/12/14 09:46:24;;;;;;;0.90;0.90;;;-3.00;99.90;;;;;;4950437;28;20084;-76
2022/12/14 09:48:52;;;;;;;0.90;0.90;;;-3.10;99.90;;;;;;4942253;28;20077;-77
2022/12/14 09:51:21;;;;;;;0.90;0.90;;;-2.90;99.90;;;;;;4942881;28;20085;-79
2022/12/14 09:53:50;;;;;;;0.80;0.80;;;-2.70;99.90;;;;;;4946668;28;20503;-77
2022/12/14 09:56:19;;;;;;;0.90;0.90;;;-2.50;99.90;;;;;;4963985;28;20461;-77
2022/12/14 09:58:58;;;;;;;0.90;0.90;;;-2.60;99.90;;;;;;4942260;28;20127;-77
2022/12/14 10:01:42;;;;;;;0.80;0.80;;;-2.50;99.90;;;;;;4944025;28;20053;-78
2022/12/14 10:04:32;;;;;;;0.90;0.90;;;-2.40;99.90;;;;;;4951643;28;20045;-78
2022/12/14 10:07:36;;;;;;;0.80;0.80;;;-2.50;99.90;;;;;;4944308;28;20032;-79
2022/12/14 10:10:21;;;;;;;0.90;0.90;;;-2.40;99.90;;;;;;4952189;28;20197;-77
2022/12/14 10:13:13;;;;;;;0.80;0.80;;;-2.50;99.90;;;;;;4947285;28;20050;-80
2022/12/14 10:15:48;;;;;;;0.80;0.80;;;-2.60;99.90;;;;;;4939755;28;20262;-78
2022/12/14 10:18:14;;;;;;;0.90;0.90;;;-2.60;99.90;;;;;;4946442;28;20060;-78
2022/12/14 10:20:50;;;;;;;0.80;0.80;;;-2.70;99.90;;;;;;4950563;28;20061;-78
2022/12/14 10:23:20;;;;;;;0.90;0.90;;;-2.70;99.90;;;;;;4942100;28;20874;-78
2022/12/14 10:25:50;;;;;;;0.90;0.90;;;-2.80;99.90;;;;;;4940698;28;20973;-78
2022/12/14 10:28:23;;;;;;;0.90;0.90;;;-2.70;99.90;;;;;;4942762;28;20045;-78
2022/12/14 10:30:55;;;;;;;0.90;0.90;;;-2.60;99.90;;;;;;4943136;28;20049;-77
2022/12/14 10:33:31;;;;;;;0.90;0.90;;;-2.40;99.90;;;;;;4953599;28;20076;-78
2022/12/14 10:36:02;;;;;;;0.80;0.80;;;-2.30;99.90;;;;;;4947479;28;20052;-78
2022/12/14 10:38:57;;;;;;;0.90;0.90;;;-2.40;99.90;;;;;;4939073;28;20464;-76
2022/12/14 10:41:50;;;;;;;0.80;0.80;;;-2.10;99.90;;;;;;4943646;28;20084;-78
2022/12/14 10:44:38;;;;;;;0.80;0.80;;;-2.30;99.90;;;;;;4941915;28;20415;-78
2022/12/14 10:47:10;;;;;;;0.90;0.90;;;-2.10;99.90;;;;;;4945702;28;20093;-79
2022/12/14 10:49:44;;;;;;;0.80;0.80;;;-2.00;99.90;;;;;;4943567;28;20501;-78
2022/12/14 10:52:18;;;;;;;0.90;0.90;;;-1.90;99.90;;;;;;4961386;28;20045;-79
2022/12/14 10:54:51;;;;;;;0.88;0.88;;;-1.90;99.90;;;;;;4969207;28;20107;-78
2022/12/14 10:57:22;;;;;;;;;;;-1.90;99.90;;;;;;4944110;28;20049;-78
2022/12/14 10:59:49;;;;;;;0.90;0.90;;;-1.80;99.90;;;;;;4994427;28;19928;-78
2022/12/14 11:02:21;;;;;;;0.80;0.80;;;-1.70;99.90;;;;;;4922087;28;20068;-78
2022/12/14 11:05:00;;;;;;;0.80;0.80;;;-1.50;99.90;;;;;;4947156;28;20807;-80
2022/12/14 11:07:33;;;;;;;0.80;0.80;;;-1.40;99.90;;;;;;4940277;28;20048;-78
2022/12/14 11:10:15;;;;;;;;;;;-1.30;99.90;;;;;;4939063;28;20433;-79
2022/12/14 11:12:50;;;;;;;0.80;0.80;;;-1.20;99.90;;;;;;4943356;28;20451;-79
2022/12/14 11:15:33;;;;;;;0.80;0.80;;;-1.10;99.90;;;;;;4954942;28;20212;-79
2022/12/14 11:18:10;;;;;;;0.90;0.90;;;-1.10;99.90;;;;;;4935348;28;20384;-80
2022/12/14 11:20:47;;;;;;;0.80;0.80;;;-0.90;99.90;;;;;;4940407;28;20840;-78
2022/12/14 11:23:26;;;;;;;0.80;0.80;;;-1.20;99.90;;;;;;4937863;28;20052;-79
2022/12/14 11:26:05;;;;;;;0.80;0.80;;;-0.90;99.90;;;;;;4936935;28;20053;-79
2022/12/14 11:28:50;;;;;;;0.80;0.80;;;-0.90;99.90;;;;;;4951542;28;20052;-78
2022/12/14 11:31:36;;;;;;;0.80;0.80;;;-0.60;99.90;;;;;;4950926;28;20792;-80
2022/12/14 11:34:04;;;;;;;0.80;0.80;;;-0.50;99.90;;;;;;4939447;28;20491;-79
2022/12/14 11:36:35;;;;;;;0.80;0.80;;;-0.40;99.90;;;;;;4919421;28;20492;-78
2022/12/14 11:39:13;;;;;;;0.80;0.80;;;-0.30;99.90;;;;;;4945052;28;20674;-79
2022/12/14 11:41:48;;;;;;;0.90;0.90;;;-0.30;99.90;;;;;;4954301;28;20088;-80
2022/12/14 11:44:14;;;;;;;0.80;0.80;;;-0.10;99.90;;;;;;4945329;28;20496;-81
2022/12/14 11:46:43;;;;;;;0.80;0.80;;;0.00;99.90;;;;;;4941267;28;20435;-81
2022/12/14 11:49:30;;;;;;;0.80;0.80;;;0.00;99.90;;;;;;4942440;28;20060;-80
2022/12/14 11:51:58;;;;;;;0.80;0.80;;;0.00;99.90;;;;;;4935264;28;20135;-81
2022/12/14 11:54:24;;;;;;;0.80;0.80;;;0.00;99.90;;;;;;4943093;28;20103;-80
2022/12/14 11:56:54;;;;;;;0.80;0.80;;;-0.40;99.90;;;;;;4939040;28;20125;-80
2022/12/14 11:59:22;;;;;;;0.80;0.80;;;-0.60;99.90;;;;;;4941333;28;20124;-81
2022/12/14 12:01:48;;;;;;;0.80;0.80;;;-0.30;99.90;;;;;;4939935;28;20132;-81
2022/12/14 12:04:15;;;;;;;0.80;0.80;;;0.00;99.90;;;;;;4937802;28;20437;-80
2022/12/14 12:06:42;;;;;;;0.80;0.80;;;0.10;99.90;;;;;;4949584;28;20188;-80
2022/12/14 12:09:27;;;;;;;0.80;0.80;;;0.20;99.90;;;;;;4947951;28;20423;-81
2022/12/14 12:11:54;;;;;;;0.80;0.80;;;0.10;99.90;;;;;;4935867;28;20698;-81
2022/12/14 12:14:34;;;;;;;0.80;0.80;;;0.30;99.90;;;;;;4938776;28;20041;-81
2022/12/14 12:17:00;;;;;;;0.80;0.80;;;0.30;99.90;;;;;;4946654;28;20079;-81
2022/12/14 12:19:37;;;;;;;0.80;0.80;;;0.10;99.90;;;;;;4945256;28;20045;-80
2022/12/14 12:22:09;;;;;;;0.80;0.80;;;0.30;99.90;;;;;;4942793;28;20565;-82
2022/12/14 12:24:55;;;;;;;0.80;0.80;;;0.50;99.90;;;;;;4945434;28;20045;-81
2022/12/14 12:27:23;;;;;;;0.80;0.80;;;0.50;99.90;;;;;;4941910;28;20538;-82
2022/12/14 12:30:03;;;;;;;0.77;0.77;;;0.50;99.90;;;;;;4945384;28;20060;-81
2022/12/14 12:32:52;;;;;;;0.80;0.80;;;0.60;99.90;;;;;;4947796;28;20053;-83
2022/12/14 12:35:28;;;;;;;0.80;0.80;;;0.50;99.90;;;;;;4951237;28;20900;-83
2022/12/14 12:38:16;;;;;;;0.73;0.73;;;0.80;99.90;;;;;;4946156;28;20045;-83
2022/12/14 12:41:02;;;;;;;0.70;0.70;;;0.70;99.90;;;;;;4947184;28;20625;-84
2022/12/14 12:43:36;;;;;;;0.80;0.80;;;0.50;99.90;;;;;;4946045;28;20303;-82
2022/12/14 12:46:31;;;;;;;0.70;0.70;;;0.40;99.90;;;;;;4946333;28;20053;-84
2022/12/14 12:49:04;;;;;;;0.70;0.70;;;0.70;99.90;;;;;;4953495;28;20045;-82
2022/12/14 12:51:41;;;;;;;0.80;0.80;;;0.20;99.90;;;;;;4957801;28;20472;-83
2022/12/14 12:54:16;;;;;;;0.70;0.70;;;0.70;99.90;;;;;;4944600;28;20245;-83
2022/12/14 12:56:50;;;;;;;0.70;0.70;;;0.90;99.90;;;;;;4947317;28;20052;-83
2022/12/14 12:59:43;;;;;;;0.80;0.80;;;1.10;99.90;;;;;;4950428;28;20856;-83
2022/12/14 13:02:29;;;;;;;0.75;0.75;;;1.20;99.90;;;;;;4946719;28;20103;-82
2022/12/14 13:04:57;;;;;;;0.75;0.75;;;1.40;99.90;;;;;;4950097;28;20053;-83
2022/12/14 13:07:32;;;;;;;0.70;0.70;;;1.30;99.90;;;;;;4955935;28;20460;-83
2022/12/14 13:10:04;;;;;;;0.80;0.80;;;1.20;99.90;;;;;;4951230;28;21046;-83
2022/12/14 13:12:41;;;;;;;0.73;0.73;;;1.10;99.90;;;;;;4965306;28;20123;-83
2022/12/14 13:15:25;;;;;;;0.70;0.70;;;1.20;99.90;;;;;;4929590;28;20543;-83
2022/12/14 13:18:12;;;;;;;0.70;0.70;;;1.30;99.90;;;;;;4950740;28;20049;-82
2022/12/14 13:20:38;;;;;;;0.70;0.70;;;1.20;99.90;;;;;;4948144;28;20050;-83
2022/12/14 13:23:05;;;;;;;0.70;0.70;;;1.30;99.90;;;;;;4949770;28;20449;-84
2022/12/14 13:26:02;;;;;;;0.80;0.80;;;1.30;99.90;;;;;;4950341;28;20053;-83
2022/12/14 13:28:53;;;;;;;0.70;0.70;;;1.40;99.90;;;;;;4957637;28;20053;-82